createdAt,value
2019-01-08T00:00:39.613Z,8.83
2019-01-08T00:01:39.560Z,8.95
2019-01-08T00:02:39.536Z,8.99
2019-01-08T00:03:39.470Z,8.91
2019-01-08T00:04:39.458Z,8.98
2019-01-08T00:05:39.379Z,8.95
2019-01-08T00:06:39.341Z,8.95
2019-01-08T00:07:39.291Z,8.99
2019-01-08T00:08:39.243Z,8.96
2019-01-08T00:09:39.208Z,8.99
2019-01-08T00:10:39.198Z,8.98
2019-01-08T00:11:39.122Z,9.02
2019-01-08T00:12:39.075Z,8.98
2019-01-08T00:13:39.049Z,8.98
2019-01-08T00:14:38.996Z,8.98
2019-01-08T00:15:38.984Z,8.95
2019-01-08T00:16:38.913Z,9.08
2019-01-08T00:17:38.852Z,9.11
2019-01-08T00:18:38.828Z,8.99
2019-01-08T00:19:38.767Z,8.99
2019-01-08T00:20:38.752Z,8.98
2019-01-08T00:21:38.687Z,9.01
2019-01-08T00:22:38.645Z,8.98
2019-01-08T00:23:38.600Z,8.94
2019-01-08T00:24:38.561Z,8.81
2019-01-08T00:25:38.511Z,8.71
2019-01-08T00:26:38.489Z,8.65
2019-01-08T00:27:38.434Z,8.58
2019-01-08T00:28:42.999Z,8.53
2019-01-08T00:29:38.334Z,8.58
2019-01-08T00:30:38.288Z,8.48
2019-01-08T00:31:38.274Z,8.65
2019-01-08T00:32:38.207Z,8.62
2019-01-08T00:33:38.211Z,8.66
2019-01-08T00:34:38.123Z,8.58
2019-01-08T00:35:38.088Z,8.58
2019-01-08T00:36:38.061Z,8.59
2019-01-08T00:37:47.206Z,8.59
2019-01-08T00:38:37.951Z,8.59
2019-01-08T00:39:37.906Z,8.61
2019-01-08T00:40:37.877Z,8.48
2019-01-08T00:41:37.848Z,8.48
2019-01-08T00:42:37.768Z,8.55
2019-01-08T00:43:37.733Z,8.44
2019-01-08T00:44:37.688Z,8.48
2019-01-08T00:45:37.646Z,8.55
2019-01-08T00:46:37.612Z,8.44
2019-01-08T00:47:37.584Z,8.45
2019-01-08T00:48:37.508Z,8.44
2019-01-08T00:49:37.468Z,8.52
2019-01-08T00:50:37.426Z,8.44
2019-01-08T00:51:37.442Z,8.48
2019-01-08T00:52:37.356Z,8.53
2019-01-08T00:53:37.296Z,8.45
2019-01-08T00:54:37.269Z,8.40
2019-01-08T00:55:37.276Z,8.40
2019-01-08T00:56:37.164Z,8.44
2019-01-08T00:57:37.164Z,8.38
2019-01-08T00:58:37.083Z,8.28
2019-01-08T00:59:37.039Z,8.25
2019-01-08T01:00:36.996Z,8.28
2019-01-08T01:01:36.973Z,8.23
2019-01-08T01:02:36.920Z,8.29
2019-01-08T01:03:36.892Z,8.20
2019-01-08T01:04:36.821Z,8.18
2019-01-08T01:05:36.791Z,8.11
2019-01-08T01:06:36.753Z,8.11
2019-01-08T01:07:36.715Z,8.08
2019-01-08T01:08:36.650Z,8.04
2019-01-08T01:09:36.610Z,7.90
2019-01-08T01:10:36.553Z,7.89
2019-01-08T01:11:36.526Z,7.90
2019-01-08T01:12:36.523Z,7.95
2019-01-08T01:13:36.420Z,7.77
2019-01-08T01:14:36.373Z,7.79
2019-01-08T01:15:36.379Z,7.77
2019-01-08T01:16:36.303Z,7.80
2019-01-08T01:17:36.255Z,7.72
2019-01-08T01:18:36.231Z,7.72
2019-01-08T01:19:36.152Z,7.71
2019-01-08T01:20:36.121Z,7.69
2019-01-08T01:21:36.078Z,7.72
2019-01-08T01:22:36.053Z,7.69
2019-01-08T01:23:36.023Z,7.69
2019-01-08T01:24:35.954Z,7.86
2019-01-08T01:25:35.906Z,7.74
2019-01-08T01:26:35.848Z,7.80
2019-01-08T01:27:35.817Z,7.82
2019-01-08T01:28:35.798Z,7.86
2019-01-08T01:29:35.713Z,7.75
2019-01-08T01:30:35.670Z,7.71
2019-01-08T01:31:35.632Z,7.87
2019-01-08T01:32:35.595Z,7.72
2019-01-08T01:33:35.585Z,7.77
2019-01-08T01:34:35.500Z,7.86
2019-01-08T01:35:35.454Z,7.69
2019-01-08T01:36:35.408Z,7.75
2019-01-08T01:37:35.378Z,7.77
2019-01-08T01:38:35.344Z,7.80
2019-01-08T01:39:35.288Z,7.87
2019-01-08T01:40:35.250Z,7.86
2019-01-08T01:41:35.190Z,7.85
2019-01-08T01:42:35.146Z,7.77
2019-01-08T01:43:35.099Z,7.83
2019-01-08T01:44:35.080Z,7.82
2019-01-08T01:45:35.014Z,7.83
2019-01-08T01:46:34.979Z,7.83
2019-01-08T01:47:34.922Z,7.80
2019-01-08T01:48:34.933Z,7.77
2019-01-08T01:49:34.839Z,7.80
2019-01-08T01:50:34.791Z,7.83
2019-01-08T01:51:34.759Z,7.77
2019-01-08T01:52:34.725Z,7.80
2019-01-08T01:53:34.697Z,7.85
2019-01-08T01:54:34.621Z,7.79
2019-01-08T01:55:34.593Z,7.79
2019-01-08T01:56:34.551Z,7.85
2019-01-08T01:57:34.493Z,7.80
2019-01-08T01:58:34.479Z,7.80
2019-01-08T01:59:34.421Z,7.83
2019-01-08T02:00:34.373Z,7.85
2019-01-08T02:01:34.313Z,7.71
2019-01-08T02:02:34.274Z,7.83
2019-01-08T02:03:34.283Z,7.80
2019-01-08T02:04:34.189Z,7.86
2019-01-08T02:05:34.166Z,7.89
2019-01-08T02:06:34.103Z,7.87
2019-01-08T02:07:34.046Z,7.83
2019-01-08T02:08:34.013Z,7.83
2019-01-08T02:09:33.983Z,7.74
2019-01-08T02:10:33.931Z,7.86
2019-01-08T02:11:33.879Z,7.80
2019-01-08T02:12:33.868Z,7.79
2019-01-08T02:13:33.785Z,7.85
2019-01-08T02:14:33.753Z,7.83
2019-01-08T02:15:33.689Z,7.80
2019-01-08T02:16:33.668Z,7.85
2019-01-08T02:17:33.641Z,7.80
2019-01-08T02:18:33.575Z,7.85
2019-01-08T05:07:31.857Z,6.73
2019-01-08T05:08:31.880Z,6.69
2019-01-08T05:09:22.793Z,6.81
2019-01-08T05:10:22.751Z,6.85
2019-01-08T05:11:22.696Z,6.81
2019-01-08T05:12:22.691Z,6.85
2019-01-08T05:13:22.617Z,6.95
2019-01-08T05:14:22.616Z,7.07
2019-01-08T05:15:22.543Z,6.97
2019-01-08T05:16:22.496Z,6.99
2019-01-08T05:17:22.460Z,6.85
2019-01-08T05:18:22.389Z,6.87
2019-01-08T05:19:22.381Z,7.02
2019-01-08T05:20:22.351Z,6.99
2019-01-08T05:21:22.307Z,6.98
2019-01-08T05:22:22.224Z,7.12
2019-01-08T05:23:22.219Z,7.13
2019-01-08T05:24:22.151Z,7.12
2019-01-08T05:25:22.084Z,7.07
2019-01-08T05:26:22.045Z,7.12
2019-01-08T05:27:22.028Z,7.03
2019-01-08T05:28:22.016Z,7.06
2019-01-08T05:29:21.933Z,7.09
2019-01-08T05:30:21.896Z,6.97
2019-01-08T05:31:21.808Z,6.94
2019-01-08T05:32:21.806Z,6.95
2019-01-08T05:33:21.752Z,6.95
2019-01-08T05:34:21.728Z,6.84
2019-01-08T05:35:21.650Z,6.98
2019-01-08T05:36:21.598Z,6.99
2019-01-08T05:37:21.566Z,6.94
2019-01-08T05:38:21.601Z,7.02
2019-01-08T05:39:21.469Z,6.95
2019-01-08T05:40:21.465Z,6.98
2019-01-08T05:41:21.363Z,6.97
2019-01-08T05:42:21.341Z,7.03
2019-01-08T05:43:21.291Z,7.06
2019-01-08T05:44:21.254Z,7.06
2019-01-08T05:45:21.209Z,7.06
2019-01-08T05:46:21.192Z,7.17
2019-01-08T05:47:21.203Z,7.21
2019-01-08T05:48:21.098Z,7.21
2019-01-08T05:49:21.038Z,7.25
2019-01-08T05:50:21.016Z,7.21
2019-01-08T05:51:20.978Z,7.21
2019-01-08T05:52:20.927Z,7.21
2019-01-08T05:53:20.851Z,7.20
2019-01-08T05:54:20.947Z,7.21
2019-01-08T05:55:21.345Z,7.17
2019-01-08T05:56:20.805Z,7.09
2019-01-08T05:57:20.748Z,7.12
2019-01-08T05:58:20.710Z,7.09
2019-01-08T05:59:20.609Z,7.09
2019-01-08T06:00:20.571Z,7.09
2019-01-08T06:01:20.537Z,7.16
2019-01-08T06:02:20.438Z,7.12
2019-01-08T06:03:20.394Z,7.09
2019-01-08T06:04:20.431Z,7.13
2019-01-08T06:05:20.330Z,7.23
2019-01-08T06:06:20.331Z,7.16
2019-01-08T06:07:20.236Z,7.17
2019-01-08T06:08:20.224Z,7.17
2019-01-08T06:09:20.167Z,7.21
2019-01-08T06:10:20.103Z,7.24
2019-01-08T06:11:20.079Z,7.17
2019-01-08T06:12:20.054Z,7.21
2019-01-08T06:13:19.967Z,7.23
2019-01-08T06:14:19.929Z,7.21
2019-01-08T06:15:19.869Z,7.12
2019-01-08T06:16:19.867Z,7.24
2019-01-08T06:17:19.795Z,7.25
2019-01-08T06:18:19.761Z,7.21
2019-01-08T06:19:19.751Z,7.21
2019-01-08T06:20:19.688Z,7.24
2019-01-08T06:21:19.638Z,7.20
2019-01-08T06:22:19.568Z,7.21
2019-01-08T06:23:19.520Z,7.16
2019-01-08T06:24:19.517Z,7.16
2019-01-08T06:25:19.467Z,7.21
2019-01-08T06:26:19.446Z,7.20
2019-01-08T06:27:19.388Z,7.23
2019-01-08T06:28:19.324Z,7.13
2019-01-08T06:29:19.245Z,7.21
2019-01-08T06:30:24.704Z,7.10
2019-01-08T06:31:19.167Z,7.21
2019-01-08T06:32:19.126Z,7.21
2019-01-08T06:33:19.099Z,7.06
2019-01-08T06:34:19.036Z,7.06
2019-01-08T06:35:18.978Z,7.09
2019-01-08T06:36:18.969Z,7.06
2019-01-08T06:37:18.917Z,7.09
2019-01-08T06:38:18.879Z,7.10
2019-01-08T06:39:18.805Z,7.09
2019-01-08T06:40:18.783Z,7.31
2019-01-08T06:41:18.761Z,7.23
2019-01-08T06:42:18.669Z,7.43
2019-01-08T06:43:18.623Z,7.39
2019-01-08T06:44:18.611Z,7.43
2019-01-08T06:45:18.555Z,7.39
2019-01-08T06:46:18.530Z,7.37
2019-01-08T06:47:18.451Z,7.43
2019-01-08T06:48:18.414Z,7.52
2019-01-08T06:49:18.372Z,7.49
2019-01-08T06:50:18.342Z,7.37
2019-01-08T06:51:18.273Z,7.27
2019-01-08T06:52:18.241Z,7.57
2019-01-08T06:53:18.197Z,7.42
2019-01-08T06:54:18.127Z,7.43
2019-01-08T06:55:18.094Z,7.40
2019-01-08T06:56:18.062Z,7.42
2019-01-08T06:57:18.005Z,7.40
2019-01-08T06:58:17.991Z,7.43
2019-01-08T06:59:17.913Z,7.40
2019-01-08T07:00:17.869Z,7.43
2019-01-08T07:01:17.857Z,7.45
2019-01-08T07:02:17.785Z,7.43
2019-01-08T07:03:17.741Z,7.55
2019-01-08T07:04:17.694Z,7.42
2019-01-08T07:05:17.679Z,7.40
2019-01-08T07:06:17.596Z,7.42
2019-01-08T07:07:17.556Z,7.46
2019-01-08T07:08:17.511Z,7.43
2019-01-08T07:09:17.468Z,7.37
2019-01-08T07:10:17.454Z,7.30
2019-01-08T07:11:17.424Z,7.28
2019-01-08T07:12:17.341Z,7.28
2019-01-08T07:13:17.296Z,7.27
2019-01-08T07:14:17.248Z,7.39
2019-01-08T07:15:17.195Z,7.15
2019-01-08T07:16:17.277Z,7.28
2019-01-08T07:17:17.123Z,7.31
2019-01-08T07:18:17.084Z,7.27
2019-01-08T07:19:17.040Z,7.21
2019-01-08T07:20:17.001Z,7.23
2019-01-08T07:21:16.951Z,7.32
2019-01-08T07:22:16.930Z,7.34
2019-01-08T07:23:16.856Z,7.35
2019-01-08T07:24:26.926Z,7.31
2019-01-08T07:25:16.778Z,7.34
2019-01-08T07:26:16.699Z,7.25
2019-01-08T07:27:16.854Z,7.09
2019-01-08T07:28:16.616Z,7.13
2019-01-08T07:29:16.584Z,7.17
2019-01-08T07:30:16.564Z,7.06
2019-01-08T07:31:16.490Z,7.09
2019-01-08T07:32:16.446Z,7.23
2019-01-08T07:33:16.412Z,7.13
2019-01-08T07:34:16.376Z,7.10
2019-01-08T07:35:16.320Z,6.97
2019-01-08T07:36:16.253Z,6.87
2019-01-08T07:37:16.213Z,6.85
2019-01-08T07:38:16.196Z,6.77
2019-01-08T07:39:16.146Z,6.87
2019-01-08T07:40:16.100Z,6.67
2019-01-08T07:41:16.070Z,6.69
2019-01-08T07:42:15.999Z,6.71
2019-01-08T07:43:15.964Z,6.76
2019-01-08T07:44:15.942Z,6.81
2019-01-08T07:45:15.875Z,6.74
2019-01-08T07:46:15.863Z,6.74
2019-01-08T07:47:15.780Z,6.66
2019-01-08T07:48:15.748Z,6.69
2019-01-08T07:49:15.724Z,6.70
2019-01-08T07:50:15.640Z,6.77
2019-01-08T07:51:15.592Z,6.76
2019-01-08T07:52:15.586Z,6.87
2019-01-08T07:53:15.553Z,6.84
2019-01-08T07:54:15.507Z,6.84
2019-01-08T07:55:15.523Z,6.85
2019-01-08T07:56:15.372Z,6.76
2019-01-08T07:57:15.326Z,6.85
2019-01-08T07:58:15.304Z,6.80
2019-01-08T07:59:15.288Z,6.71
2019-01-08T08:00:15.249Z,6.73
2019-01-08T08:01:15.238Z,6.71
2019-01-08T08:03:55.072Z,6.71
2019-01-08T08:04:54.896Z,6.67
2019-01-08T08:05:54.962Z,6.74
2019-01-08T08:06:54.912Z,6.70
2019-01-08T08:07:55.603Z,6.66
2019-01-08T08:08:54.727Z,6.76
2019-01-08T08:09:54.688Z,6.79
2019-01-08T08:10:54.651Z,6.64
2019-01-08T08:11:54.593Z,6.73
2019-01-08T08:12:54.592Z,6.73
2019-01-08T08:13:54.509Z,6.84
2019-01-08T08:14:54.480Z,6.80
2019-01-08T08:15:54.434Z,6.81
2019-01-08T08:16:54.369Z,6.80
2019-01-08T08:17:54.333Z,6.81
2019-01-08T08:18:54.289Z,6.69
2019-01-08T08:19:54.243Z,6.70
2019-01-08T08:20:54.227Z,6.71
2019-01-08T08:21:54.200Z,6.84
2019-01-08T08:22:54.091Z,6.79
2019-01-08T08:23:54.080Z,6.81
2019-01-08T08:24:55.852Z,6.76
2019-01-08T08:25:53.986Z,6.89
2019-01-08T08:26:53.971Z,6.95
2019-01-08T08:27:53.907Z,6.95
2019-01-08T08:28:53.863Z,6.98
2019-01-08T08:29:53.794Z,6.97
2019-01-08T08:30:58.527Z,7.03
2019-01-08T08:31:53.739Z,6.98
2019-01-08T08:32:53.669Z,7.02
2019-01-08T08:33:53.631Z,6.92
2019-01-08T08:34:53.588Z,6.98
2019-01-08T08:35:53.515Z,7.06
2019-01-08T08:36:53.525Z,6.97
2019-01-08T08:37:53.441Z,7.10
2019-01-08T08:38:53.392Z,7.07
2019-01-08T08:39:53.341Z,7.10
2019-01-08T08:40:53.288Z,7.05
2019-01-08T08:41:53.299Z,6.94
2019-01-08T08:42:53.234Z,7.09
2019-01-08T08:43:53.174Z,6.94
2019-01-08T08:44:53.118Z,6.98
2019-01-08T08:45:53.077Z,6.99
2019-01-08T08:46:53.038Z,6.94
2019-01-08T08:47:53.004Z,6.95
2019-01-08T08:48:52.927Z,6.97
2019-01-08T08:49:52.893Z,7.06
2019-01-08T08:50:52.843Z,6.99
2019-01-08T08:51:52.816Z,7.07
2019-01-08T08:52:52.811Z,7.06
2019-01-08T08:53:52.951Z,6.97
2019-01-08T08:54:52.689Z,6.99
2019-01-08T08:55:52.645Z,6.97
2019-01-08T08:56:52.589Z,6.94
2019-01-08T08:57:52.547Z,6.97
2019-01-08T08:58:52.521Z,7.02
2019-01-08T08:59:52.479Z,7.13
2019-01-08T09:00:52.418Z,6.97
2019-01-08T09:01:52.398Z,7.06
2019-01-08T09:02:52.328Z,7.10
2019-01-08T09:03:52.280Z,7.17
2019-01-08T09:04:53.333Z,7.15
2019-01-08T09:05:52.199Z,7.28
2019-01-08T09:06:52.182Z,7.24
2019-01-08T09:07:52.106Z,7.20
2019-01-08T09:08:52.078Z,7.20
2019-01-08T09:09:52.055Z,7.34
2019-01-08T09:10:51.990Z,7.15
2019-01-08T09:11:51.934Z,7.30
2019-01-08T09:12:51.900Z,7.27
2019-01-08T09:13:51.851Z,7.34
2019-01-08T09:14:51.870Z,7.21
2019-01-08T09:15:51.759Z,7.37
2019-01-08T09:16:51.724Z,7.32
2019-01-08T09:17:51.707Z,7.16
2019-01-08T09:18:51.622Z,7.20
2019-01-08T09:19:51.603Z,7.17
2019-01-08T09:20:51.548Z,7.23
2019-01-08T09:21:51.516Z,7.20
2019-01-08T09:22:51.458Z,7.20
2019-01-08T09:23:51.448Z,7.15
2019-01-08T09:24:51.433Z,7.21
2019-01-08T09:25:51.320Z,7.20
2019-01-08T09:26:51.302Z,7.27
2019-01-08T09:27:51.253Z,7.31
2019-01-08T09:28:51.278Z,7.32
2019-01-08T09:29:51.194Z,7.25
2019-01-08T09:30:51.106Z,7.25
2019-01-08T09:31:51.156Z,7.24
2019-01-08T09:32:51.095Z,7.24
2019-01-08T09:33:50.957Z,7.31
2019-01-08T09:34:50.937Z,7.37
2019-01-08T09:35:50.909Z,7.17
2019-01-08T09:36:50.839Z,7.31
2019-01-08T09:37:50.793Z,7.30
2019-01-08T09:38:50.747Z,7.17
2019-01-08T09:40:00.319Z,7.20
2019-01-08T09:40:50.688Z,7.20
2019-01-08T09:41:50.602Z,7.23
2019-01-08T09:42:50.601Z,7.31
2019-01-08T09:43:50.519Z,7.21
2019-01-08T09:44:50.512Z,7.24
2019-01-08T09:45:50.480Z,7.28
2019-01-08T09:46:50.414Z,7.24
2019-01-08T09:47:50.347Z,7.24
2019-01-08T09:48:50.297Z,7.25
2019-01-08T09:49:50.362Z,7.23
2019-01-08T09:50:50.215Z,7.24
2019-01-08T09:51:50.183Z,7.23
2019-01-08T09:52:50.118Z,7.17
2019-01-08T09:53:50.088Z,7.30
2019-01-08T09:54:50.042Z,7.30
2019-01-08T09:55:49.990Z,7.32
2019-01-08T09:56:49.964Z,7.32
2019-01-08T09:57:49.925Z,7.31
2019-01-08T09:58:49.875Z,7.31
2019-01-08T09:59:49.849Z,7.30
2019-01-08T10:00:49.775Z,7.28
2019-01-08T10:01:49.780Z,7.30
2019-01-08T10:02:49.668Z,7.23
2019-01-08T10:03:49.633Z,7.21
2019-01-08T10:04:49.591Z,7.27
2019-01-08T10:05:49.570Z,7.32
2019-01-08T10:06:49.497Z,7.25
2019-01-08T10:07:49.501Z,7.21
2019-01-08T10:08:49.424Z,7.16
2019-01-08T10:09:49.371Z,7.31
2019-01-08T10:10:49.326Z,7.30
2019-01-08T10:11:49.290Z,7.31
2019-01-08T10:12:49.277Z,7.28
2019-01-08T10:13:49.219Z,7.25
2019-01-08T10:14:49.139Z,7.21
2019-01-08T10:15:49.102Z,7.25
2019-01-08T10:16:49.071Z,7.28
2019-01-08T10:17:49.030Z,7.27
2019-01-08T10:18:49.009Z,7.23
2019-01-08T10:19:48.939Z,7.28
2019-01-08T10:20:48.904Z,7.27
2019-01-08T10:21:48.843Z,7.32
2019-01-08T10:22:48.833Z,7.42
2019-01-08T10:23:48.744Z,7.39
2019-01-08T10:24:48.720Z,7.40
2019-01-08T10:25:48.666Z,7.35
2019-01-08T10:26:48.618Z,7.32
2019-01-08T10:27:48.576Z,7.37
2019-01-08T10:28:48.575Z,7.42
2019-01-08T10:29:48.512Z,7.40
2019-01-08T10:30:48.469Z,7.46
2019-01-08T10:31:48.405Z,7.46
2019-01-08T10:32:48.360Z,7.50
2019-01-08T10:33:48.354Z,7.42
2019-01-08T10:34:48.300Z,7.49
2019-01-08T10:35:48.232Z,7.46
2019-01-08T10:36:48.172Z,7.55
2019-01-08T10:37:48.155Z,7.61
2019-01-08T10:38:48.141Z,7.67
2019-01-08T10:39:48.059Z,7.67
2019-01-08T10:40:48.006Z,7.58
2019-01-08T10:41:47.953Z,7.58
2019-01-08T10:42:47.911Z,7.72
2019-01-08T10:43:47.893Z,7.69
2019-01-08T10:44:47.870Z,7.69
2019-01-08T10:45:47.795Z,7.58
2019-01-08T10:46:47.759Z,7.67
2019-01-08T10:47:47.706Z,7.72
2019-01-08T10:48:47.643Z,7.74
2019-01-08T10:49:47.659Z,7.80
2019-01-08T10:50:47.629Z,7.74
2019-01-08T10:51:47.527Z,7.80
2019-01-08T10:52:47.483Z,7.86
2019-01-08T10:53:47.452Z,7.87
2019-01-08T10:54:47.424Z,7.90
2019-01-08T10:55:47.346Z,7.92
2019-01-08T10:56:47.322Z,7.97
2019-01-08T10:57:47.263Z,7.97
2019-01-08T10:58:47.237Z,8.08
2019-01-08T10:59:47.199Z,8.05
2019-01-08T11:00:47.128Z,8.00
2019-01-08T11:01:47.109Z,8.01
2019-01-08T11:02:47.065Z,7.93
2019-01-08T11:03:47.014Z,7.87
2019-01-08T11:04:46.986Z,7.90
2019-01-08T11:05:46.932Z,7.90
2019-01-08T11:06:46.898Z,7.95
2019-01-08T11:07:46.826Z,7.86
2019-01-08T11:08:46.779Z,8.04
2019-01-08T11:09:46.777Z,8.02
2019-01-08T11:10:46.732Z,8.01
2019-01-08T11:11:46.649Z,7.98
2019-01-08T11:12:46.628Z,7.90
2019-01-08T11:13:46.563Z,7.89
2019-01-08T11:14:46.551Z,7.87
2019-01-08T11:15:46.488Z,8.01
2019-01-08T11:16:46.441Z,7.92
2019-01-08T11:17:46.397Z,8.01
2019-01-08T11:18:46.349Z,7.92
2019-01-08T11:19:46.321Z,8.00
2019-01-08T11:20:46.255Z,8.04
2019-01-08T11:21:46.230Z,7.97
2019-01-08T11:22:46.271Z,7.97
2019-01-08T11:23:46.201Z,7.97
2019-01-08T11:24:46.151Z,8.00
2019-01-08T11:25:46.154Z,7.92
2019-01-08T11:26:46.087Z,7.92
2019-01-08T11:27:45.970Z,7.92
2019-01-08T11:28:45.909Z,7.90
2019-01-08T11:29:45.919Z,7.90
2019-01-08T11:30:45.864Z,7.87
2019-01-08T11:31:49.028Z,7.83
2019-01-08T11:32:45.736Z,7.89
2019-01-08T11:33:45.702Z,7.80
2019-01-08T11:34:45.698Z,7.97
2019-01-08T11:35:45.633Z,7.90
2019-01-08T11:36:45.597Z,7.90
2019-01-08T11:37:45.517Z,7.89
2019-01-08T11:38:45.479Z,7.90
2019-01-08T11:39:45.483Z,7.97
2019-01-08T11:40:45.382Z,7.95
2019-01-08T11:41:45.365Z,7.87
2019-01-08T11:42:45.320Z,7.92
2019-01-08T11:43:45.255Z,7.83
2019-01-08T11:44:45.246Z,7.77
2019-01-08T11:45:45.191Z,7.83
2019-01-08T11:46:45.140Z,7.79
2019-01-08T11:47:45.095Z,7.72
2019-01-08T11:48:45.067Z,7.77
2019-01-08T11:49:45.047Z,7.72
2019-01-08T11:50:54.273Z,7.57
2019-01-08T11:51:44.898Z,7.63
2019-01-08T11:52:44.857Z,7.50
2019-01-08T11:53:44.810Z,7.60
2019-01-08T11:54:44.772Z,7.53
2019-01-08T11:55:44.749Z,7.49
2019-01-08T11:56:44.685Z,7.58
2019-01-08T11:57:44.629Z,7.40
2019-01-08T11:58:44.584Z,7.52
2019-01-08T11:59:44.547Z,7.39
2019-01-08T12:00:44.505Z,7.39
2019-01-08T12:01:44.481Z,7.42
2019-01-08T12:02:47.947Z,7.42
2019-01-08T12:03:44.397Z,7.40
2019-01-08T12:04:44.331Z,7.55
2019-01-08T12:05:44.287Z,7.50
2019-01-08T12:06:44.256Z,7.53
2019-01-08T12:07:44.189Z,7.40
2019-01-08T12:08:44.173Z,7.52
2019-01-08T12:09:44.111Z,7.46
2019-01-08T12:10:44.065Z,7.48
2019-01-08T12:11:44.024Z,7.45
2019-01-08T12:12:43.989Z,7.43
2019-01-08T12:13:43.935Z,7.48
2019-01-08T12:14:43.912Z,7.37
2019-01-08T12:15:43.839Z,7.42
2019-01-08T12:16:43.796Z,7.50
2019-01-08T12:17:43.787Z,7.35
2019-01-08T12:18:43.718Z,7.45
2019-01-08T12:19:43.664Z,7.37
2019-01-08T12:20:43.643Z,7.46
2019-01-08T12:21:43.577Z,7.45
2019-01-08T12:22:43.534Z,7.48
2019-01-08T12:23:43.495Z,7.48
2019-01-08T12:24:43.451Z,7.42
2019-01-08T12:25:43.432Z,7.42
2019-01-08T12:26:43.395Z,7.40
2019-01-08T12:27:43.311Z,7.37
2019-01-08T12:28:43.270Z,7.40
2019-01-08T12:29:43.223Z,7.40
2019-01-08T12:30:43.189Z,7.40
2019-01-08T12:31:43.173Z,7.45
2019-01-08T12:32:43.127Z,7.43
2019-01-08T12:33:43.081Z,7.53
2019-01-08T12:34:43.007Z,7.53
2019-01-08T12:35:42.971Z,7.72
2019-01-08T12:36:42.924Z,7.86
2019-01-08T12:37:42.904Z,7.89
2019-01-08T12:38:42.837Z,7.85
2019-01-08T12:39:42.788Z,8.04
2019-01-08T12:40:42.744Z,7.98
2019-01-08T12:41:42.700Z,8.04
2019-01-08T12:42:42.679Z,8.04
2019-01-08T12:43:42.645Z,8.04
2019-01-08T12:44:42.674Z,8.08
2019-01-08T12:45:42.532Z,8.07
2019-01-08T12:46:42.494Z,8.12
2019-01-08T12:47:42.448Z,8.18
2019-01-08T12:48:42.477Z,8.22
2019-01-08T12:49:42.362Z,8.23
2019-01-08T12:50:42.322Z,8.25
2019-01-08T12:51:42.455Z,8.30
2019-01-08T12:52:42.226Z,8.22
2019-01-08T12:53:42.187Z,8.43
2019-01-08T12:54:42.378Z,8.25
2019-01-08T12:55:42.102Z,8.22
2019-01-08T12:56:42.071Z,8.18
2019-01-08T12:57:42.038Z,8.15
2019-01-08T12:58:51.259Z,8.07
2019-01-08T12:59:49.019Z,8.11
2019-01-08T13:00:51.499Z,8.07
2019-01-08T13:01:50.998Z,8.11
2019-01-08T13:02:50.911Z,8.11
2019-01-08T13:03:50.943Z,8.16
2019-01-08T13:04:50.980Z,8.37
2019-01-08T13:05:50.591Z,8.45
2019-01-08T13:06:50.618Z,8.52
2019-01-08T13:07:51.083Z,8.61
2019-01-08T13:08:49.121Z,8.62
2019-01-08T13:09:49.157Z,8.68
2019-01-08T13:10:49.193Z,8.71
2019-01-08T13:11:49.244Z,8.74
2019-01-08T13:12:50.261Z,8.84
2019-01-08T13:13:50.788Z,8.77
2019-01-08T13:14:41.379Z,8.81
2019-01-08T13:15:41.250Z,8.77
2019-01-08T13:16:41.229Z,8.71
2019-01-08T13:17:41.189Z,8.65
2019-01-08T13:18:41.118Z,8.61
2019-01-08T13:19:41.181Z,8.52
2019-01-08T13:20:41.015Z,8.43
2019-01-08T13:21:40.965Z,8.26
2019-01-08T13:22:40.945Z,8.20
2019-01-08T13:23:41.020Z,8.16
2019-01-08T13:24:40.823Z,8.05
2019-01-08T13:25:40.965Z,7.93
2019-01-08T13:26:40.749Z,7.97
2019-01-08T13:27:40.701Z,7.75
2019-01-08T13:28:40.677Z,7.80
2019-01-08T13:29:40.663Z,7.83
2019-01-08T13:30:49.813Z,7.80
2019-01-08T13:31:49.857Z,7.74
2019-01-08T13:32:49.941Z,7.72
2019-01-08T13:33:49.929Z,7.69
2019-01-08T13:34:49.983Z,7.79
2019-01-08T13:35:49.491Z,7.64
2019-01-08T13:36:40.308Z,7.60
2019-01-08T13:37:40.261Z,7.52
2019-01-08T13:38:40.221Z,7.57
2019-01-08T13:39:40.164Z,7.58
2019-01-08T13:40:40.144Z,7.57
2019-01-08T13:41:40.092Z,7.60
2019-01-08T13:42:40.039Z,7.52
2019-01-08T13:43:39.989Z,7.53
2019-01-08T13:44:39.942Z,7.49
2019-01-08T13:45:39.922Z,7.52
2019-01-08T13:46:39.856Z,7.53
2019-01-08T13:47:39.821Z,7.42
2019-01-08T13:48:39.784Z,7.40
2019-01-08T13:49:39.731Z,7.45
2019-01-08T13:50:39.708Z,7.39
2019-01-08T13:51:39.633Z,7.43
2019-01-08T13:52:39.594Z,7.57
2019-01-08T13:53:39.551Z,7.60
2019-01-08T13:54:39.504Z,7.67
2019-01-08T13:55:39.486Z,7.69
2019-01-08T13:56:39.423Z,7.74
2019-01-08T13:57:39.376Z,7.80
2019-01-08T13:58:39.328Z,7.97
2019-01-08T13:59:39.290Z,7.95
2019-01-08T14:00:39.265Z,8.10
2019-01-08T14:01:39.204Z,8.11
2019-01-08T14:02:39.156Z,8.11
2019-01-08T14:03:39.106Z,8.07
2019-01-08T14:04:39.064Z,8.18
2019-01-08T14:05:39.047Z,8.19
2019-01-08T14:06:38.977Z,8.18
2019-01-08T14:07:38.959Z,8.20
2019-01-08T14:08:38.896Z,8.22
2019-01-08T14:09:38.852Z,8.04
2019-01-08T14:10:38.808Z,8.02
2019-01-08T14:11:38.778Z,8.00
2019-01-08T14:12:38.742Z,8.11
2019-01-08T14:13:38.678Z,8.15
2019-01-08T14:14:38.635Z,8.12
2019-01-08T14:15:38.607Z,8.12
2019-01-08T14:16:38.543Z,8.12
2019-01-08T14:17:38.607Z,8.15
2019-01-08T14:18:38.454Z,8.08
2019-01-08T14:19:38.418Z,8.05
2019-01-08T14:20:38.396Z,8.01
2019-01-08T14:21:38.331Z,8.00
2019-01-08T14:22:38.288Z,8.04
2019-01-08T14:23:38.237Z,7.86
2019-01-08T14:24:38.194Z,7.90
2019-01-08T14:25:38.170Z,7.95
2019-01-08T14:26:38.107Z,7.85
2019-01-08T14:27:38.070Z,7.82
2019-01-08T14:28:38.028Z,7.93
2019-01-08T14:29:38.002Z,7.87
2019-01-08T14:30:37.932Z,7.90
2019-01-08T14:31:37.895Z,7.92
2019-01-08T14:32:40.778Z,7.89
2019-01-08T14:33:37.808Z,7.82
2019-01-08T14:34:37.789Z,7.75
2019-01-08T14:35:37.761Z,7.75
2019-01-08T14:36:37.672Z,7.69
2019-01-08T14:37:37.628Z,7.72
2019-01-08T14:38:37.586Z,7.71
2019-01-08T14:39:37.552Z,7.61
2019-01-08T14:40:37.542Z,7.50
2019-01-08T14:41:37.460Z,7.52
2019-01-08T14:42:37.419Z,7.45
2019-01-08T14:43:37.365Z,7.43
2019-01-08T14:44:37.325Z,7.32
2019-01-08T14:45:37.286Z,7.27
2019-01-08T14:46:37.265Z,7.34
2019-01-08T14:47:37.189Z,7.17
2019-01-08T14:48:37.151Z,7.09
2019-01-08T14:49:37.099Z,7.16
2019-01-08T14:50:37.082Z,6.92
2019-01-08T14:51:37.020Z,6.99
2019-01-08T14:52:37.007Z,6.95
2019-01-08T14:53:36.946Z,6.87
2019-01-08T14:54:36.895Z,6.88
2019-01-08T14:55:36.839Z,6.92
2019-01-08T14:56:36.797Z,6.94
2019-01-08T14:57:36.752Z,6.95
2019-01-08T14:58:36.730Z,6.99
2019-01-08T14:59:36.673Z,6.97
2019-01-08T15:00:36.626Z,6.88
2019-01-08T15:01:36.601Z,6.85
2019-01-08T15:02:36.531Z,6.84
2019-01-08T15:03:36.494Z,6.73
2019-01-08T15:04:36.474Z,6.79
2019-01-08T15:05:36.409Z,6.69
2019-01-08T15:06:36.383Z,6.66
2019-01-08T15:07:36.308Z,6.66
2019-01-08T15:08:36.265Z,6.59
2019-01-08T15:09:36.219Z,6.62
2019-01-08T15:10:36.176Z,6.64
2019-01-08T15:11:36.165Z,6.49
2019-01-08T15:12:36.094Z,6.56
2019-01-08T15:13:36.053Z,6.59
2019-01-08T15:14:36.005Z,6.61
2019-01-08T15:15:35.967Z,6.58
2019-01-08T15:16:35.918Z,6.58
2019-01-08T15:17:36.013Z,6.52
2019-01-08T15:18:35.849Z,6.58
2019-01-08T15:19:35.773Z,6.55
2019-01-08T15:20:35.740Z,6.66
2019-01-08T15:21:35.711Z,6.62
2019-01-08T15:22:35.642Z,6.54
2019-01-08T15:23:35.641Z,6.58
2019-01-08T15:24:35.560Z,6.66
2019-01-08T15:25:35.516Z,6.55
2019-01-08T15:26:35.492Z,6.58
2019-01-08T15:27:35.417Z,6.58
2019-01-08T15:28:35.409Z,6.51
2019-01-08T15:29:35.326Z,6.54
2019-01-08T15:30:35.285Z,6.54
2019-01-08T15:31:35.249Z,6.51
2019-01-08T15:32:35.199Z,6.49
2019-01-08T15:33:35.171Z,6.51
2019-01-08T15:34:35.104Z,6.46
2019-01-08T15:35:35.072Z,6.51
2019-01-08T15:36:35.024Z,6.43
2019-01-08T15:37:34.977Z,6.41
2019-01-08T15:38:34.968Z,6.51
2019-01-08T15:39:34.875Z,6.44
2019-01-08T15:40:34.863Z,6.48
2019-01-08T15:41:34.789Z,6.61
2019-01-08T15:42:34.748Z,6.62
2019-01-08T15:43:34.735Z,6.66
2019-01-08T15:44:34.663Z,6.61
2019-01-08T15:45:34.623Z,6.59
2019-01-08T15:46:34.579Z,6.66
2019-01-08T15:47:34.518Z,6.62
2019-01-08T15:48:34.480Z,6.77
2019-01-08T15:49:34.468Z,6.81
2019-01-08T15:50:34.396Z,6.79
2019-01-08T15:51:34.341Z,6.88
2019-01-08T15:52:34.300Z,6.92
2019-01-08T15:53:34.277Z,6.92
2019-01-08T15:54:34.241Z,6.98
2019-01-08T15:55:34.190Z,6.94
2019-01-08T15:56:34.131Z,6.99
2019-01-08T15:57:34.206Z,6.87
2019-01-08T15:58:34.065Z,6.98
2019-01-08T15:59:34.043Z,7.03
2019-01-08T16:00:33.947Z,7.03
2019-01-08T16:01:33.903Z,6.98
2019-01-08T16:02:33.858Z,6.94
2019-01-08T16:03:33.822Z,6.87
2019-01-08T16:04:33.801Z,6.91
2019-01-08T16:05:33.720Z,6.89
2019-01-08T16:06:33.775Z,6.89
2019-01-08T16:07:33.646Z,6.88